avis per tempestes more information blitzortung!


avis per Pluja more information rain snow radar


Visita la nostra xarxa de llocs de meteo:

Template documentation
and downloads

And another site



Thunderstorms From: 18-09-2018 20:00 Until: 19-09-2018 10:59 warning for: Thunderstorms Level: Yellow info button
Rain From: 18-09-2018 20:00 Until: 19-09-2018 10:59 warning for: Rain Level: Yellow info button

Pagina Historial Weather Underground text

Diari Resum Octubre 17, 2017 Unitats:  Imperial    Mètric   Tant
« Previous Dia
SegĂźent Dia »
Diari Setmana Mensual Anual Personalitzada
  Maxima: Minima: Media:
Temperatura: TemperatureC °F 13.2 °F 19 °F
Punt de rosada: DewpointC °F 11.1 °F 13.2 °F
Humitat: Humidity % 52 % 70 %
Wind Speed: WindSpeedKMH mph 0.0 mph 4.5 mph
RĂ fegues de vent: WindSpeedGustKMH mph - -
Vent:- - South
Pression baro: PressurehPa in 1016.8 in -
Precipitacions: 0.0 in    
Historical Graphs
 
 
Dades de taula per Octubre 17, 2017
Temps Temperatura Punt de rosada Pression baro Vent Wind Speed RĂ fegues de vent Humitat Rainfall Rate (Hourly)
TemperatureC °F DewpointC °F PressurehPa in Calm     Humidity % HourlyPrecipMM in
00:00 17.3 °F 12.8 °F 1026.0 in WSW 2.3 mph 2.3 mph 75 % 0.0 in
00:05 17.4 °F 12.9 °F 1026.0 in WSW 1.6 mph 3.2 mph 75 % 0.0 in
00:10 17.4 °F 12.9 °F 1026.0 in Calm     75 % 0.0 in
00:15 17.3 °F 12.8 °F 1026.0 in WSW 1.9 mph 1.9 mph 75 % 0.0 in
00:20 17.2 °F 12.7 °F 1026.0 in Calm     75 % 0.0 in
00:25 17.2 °F 12.7 °F 1026.0 in WSW 1.9 mph   75 % 0.0 in
00:30 17.2 °F 12.9 °F 1026.0 in Calm     76 % 0.0 in
00:35 17.2 °F 12.9 °F 1026.0 in ENE 2.3 mph 2.3 mph 76 % 0.0 in
00:40 17.0 °F 12.7 °F 1026.0 in ENE 1.9 mph   76 % 0.0 in
00:45 17.0 °F 12.7 °F 1026.0 in Calm     76 % 0.0 in
00:50 16.8 °F 12.7 °F 1026.0 in Calm     77 % 0.0 in
00:55 14.1 °F 11.4 °F 1023.9 in Calm     84 % 0.0 in
01:05 14.1 °F 11.6 °F 1023.9 in Calm     85 % 0.0 in
01:15 14.0 °F 11.5 °F 1023.9 in Calm     85 % 0.0 in
01:25 13.9 °F 11.4 °F 1023.9 in Calm     85 % 0.0 in
01:35 13.9 °F 11.4 °F 1023.9 in Calm     85 % 0.0 in
01:45 13.7 °F 11.2 °F 1023.9 in Calm   1.6 mph 85 % 0.0 in
02:05 13.7 °F 11.4 °F 1023.9 in Calm     86 % 0.0 in
02:15 13.7 °F 11.4 °F 1023.9 in WNW 1.6 mph 1.6 mph 86 % 0.0 in
02:25 13.7 °F 11.4 °F 1023.9 in Calm     86 % 0.0 in
02:35 13.7 °F 11.6 °F 1023.9 in Calm     87 % 0.0 in
02:45 13.6 °F 11.5 °F 1022.9 in Calm     87 % 0.0 in
02:55 13.6 °F 11.5 °F 1022.9 in Calm     87 % 0.0 in
03:05 13.6 °F 11.7 °F 1022.9 in Calm     88 % 0.0 in
03:15 13.6 °F 11.7 °F 1023.9 in Calm     88 % 0.0 in
03:25 13.2 °F 11.1 °F 1023.9 in Calm     87 % 0.0 in
03:35 13.5 °F 11.6 °F 1023.9 in Calm     88 % 0.0 in
03:45 13.6 °F 11.7 °F 1023.9 in Calm   3.2 mph 88 % 0.0 in
03:55 13.9 °F 11.9 °F 1023.9 in Calm   3.2 mph 88 % 0.0 in
04:05 14.3 °F 12.7 °F 1023.9 in Calm     90 % 0.0 in
04:15 14.6 °F 12.8 °F 1023.9 in Calm   1.6 mph 89 % 0.0 in
04:25 15.4 °F 13.6 °F 1023.9 in SW 1.6 mph 3.2 mph 89 % 0.0 in
04:35 15.6 °F 13.6 °F 1023.9 in SSW 1.6 mph 3.2 mph 88 % 0.0 in
04:45 16.3 °F 13.9 °F 1022.9 in Calm   3.2 mph 86 % 0.0 in
04:55 16.4 °F 13.9 °F 1022.9 in Calm   3.2 mph 85 % 0.0 in
05:05 16.4 °F 13.7 °F 1022.9 in Calm   3.2 mph 84 % 0.0 in
05:15 16.5 °F 13.6 °F 1022.9 in WSW 1.6 mph 3.2 mph 83 % 0.0 in
05:35 17.3 °F 13.8 °F 1022.9 in South 1.6 mph 3.2 mph 80 % 0.0 in
05:45 17.4 °F 13.7 °F 1023.9 in SE 1.6 mph 3.2 mph 79 % 0.0 in
05:50 17.6 °F 13.9 °F 1023.9 in Calm     79 % 0.0 in
10:50 17.7 °F 14.0 °F 1023.9 in WNW 3.7 mph   79 % 0.0 in
10:55 18.0 °F 14.1 °F 1023.9 in WSW 3.7 mph 3.7 mph 78 % 0.0 in
11:00 18.3 °F 14.4 °F 1022.9 in ENE 3.5 mph 3.5 mph 78 % 0.0 in
11:05 18.8 °F 14.7 °F 1022.9 in NNW 6.1 mph 6.1 mph 77 % 0.0 in
11:10 18.9 °F 14.6 °F 1022.9 in NNE 7.4 mph 7.4 mph 76 % 0.0 in
11:15 19.5 °F 14.9 °F 1023.9 in NNE 5.6 mph 5.6 mph 75 % 0.0 in
11:20 19.9 °F 15.1 °F 1023.9 in ENE 7.4 mph 7.4 mph 74 % 0.0 in
11:25 19.9 °F 14.9 °F 1023.9 in North 9.3 mph 9.3 mph 73 % 0.0 in
11:30 20.2 °F 14.8 °F 1023.9 in ENE 9.3 mph 9.3 mph 71 % 0.0 in
11:35 20.3 °F 14.7 °F 1023.9 in NNE 9.3 mph 9.3 mph 70 % 0.0 in
11:40 20.3 °F 14.4 °F 1023.9 in NE 9.3 mph 9.3 mph 69 % 0.0 in
11:45 20.4 °F 14.5 °F 1023.9 in NE 9.3 mph 9.3 mph 69 % 0.0 in
11:50 20.5 °F 14.4 °F 1023.9 in East 7.4 mph 7.4 mph 68 % 0.0 in
11:55 20.7 °F 14.6 °F 1023.9 in ESE 7.4 mph 7.4 mph 68 % 0.0 in
12:00 21.1 °F 14.9 °F 1023.9 in NNE 7.4 mph 7.4 mph 68 % 0.0 in
12:05 20.8 °F 14.4 °F 1023.9 in ESE 7.4 mph 7.4 mph 67 % 0.0 in
12:10 21.2 °F 14.8 °F 1023.9 in ENE 3.7 mph 3.7 mph 67 % 0.0 in
12:15 21.1 °F 14.5 °F 1023.9 in ESE 5.6 mph 5.6 mph 66 % 0.0 in
12:20 21.0 °F 14.4 °F 1023.9 in East 5.6 mph 5.6 mph 66 % 0.0 in
12:21 21.0 °F 14.4 °F 1023.9 in East 5.6 mph 5.6 mph 66 % 0.0 in
12:26 20.8 °F 14.2 °F 1022.9 in East 7.9 mph 7.9 mph 66 % 0.0 in
12:31 21.1 °F 14.7 °F 1022.9 in ENE 7.4 mph 7.4 mph 67 % 0.0 in
12:36 21.1 °F 14.5 °F 1022.9 in ESE 3.9 mph 3.9 mph 66 % 0.0 in
12:41 21.5 °F 14.4 °F 1022.9 in SSE 5.6 mph 5.6 mph 64 % 0.0 in
12:46 21.8 °F 14.9 °F 1022.9 in South 3.7 mph 3.7 mph 65 % 0.0 in
12:51 21.7 °F 14.3 °F 1022.9 in East 7.4 mph 7.4 mph 63 % 0.0 in
12:56 21.9 °F 14.6 °F 1022.9 in ESE 5.6 mph 5.6 mph 63 % 0.0 in
13:01 22.0 °F 14.6 °F 1022.9 in SW 7.4 mph 7.4 mph 63 % 0.0 in
13:06 22.6 °F 15.2 °F 1022.9 in SE 5.3 mph 5.3 mph 63 % 0.0 in
13:11 22.4 °F 14.8 °F 1022.9 in South 3.7 mph 3.7 mph 62 % 0.0 in
13:16 22.4 °F 14.8 °F 1022.9 in ESE 3.7 mph 3.7 mph 62 % 0.0 in
13:21 23.0 °F 15.3 °F 1022.9 in WSW 5.6 mph 5.6 mph 62 % 0.0 in
13:26 22.5 °F 14.6 °F 1021.9 in East 3.7 mph 3.7 mph 61 % 0.0 in
13:31 22.3 °F 14.4 °F 1021.9 in East 8.7 mph 8.7 mph 61 % 0.0 in
13:36 22.6 °F 14.9 °F 1021.9 in WSW 3.7 mph 3.7 mph 62 % 0.0 in
13:41 23.0 °F 14.8 °F 1021.9 in East 4.2 mph 4.2 mph 60 % 0.0 in
13:46 23.2 °F 15.0 °F 1021.9 in ESE 4.7 mph   60 % 0.0 in
13:51 23.4 °F 15.2 °F 1021.9 in East 5.6 mph 5.6 mph 60 % 0.0 in
13:56 23.3 °F 14.6 °F 1020.9 in SSW 9.3 mph 9.3 mph 58 % 0.0 in
14:01 23.4 °F 14.9 °F 1020.9 in SW 5.6 mph 5.6 mph 59 % 0.0 in
14:06 23.4 °F 15.2 °F 1020.9 in WSW 7.4 mph 7.4 mph 60 % 0.0 in
14:11 23.1 °F 14.7 °F 1021.9 in WSW 5.6 mph 5.6 mph 59 % 0.0 in
14:16 23.2 °F 14.7 °F 1021.9 in SW 5.3 mph 5.3 mph 59 % 0.0 in
14:21 23.3 °F 14.8 °F 1021.9 in SSW 9.3 mph 9.3 mph 59 % 0.0 in
14:26 23.4 °F 14.4 °F 1021.9 in SSE 3.7 mph 3.7 mph 57 % 0.0 in
14:31 23.5 °F 14.5 °F 1021.9 in WSW 3.9 mph 3.9 mph 57 % 0.0 in
14:36 23.3 °F 14.1 °F 1021.9 in South 5.6 mph 5.6 mph 56 % 0.0 in
14:41 23.6 °F 14.3 °F 1021.9 in ESE 9.0 mph 9.0 mph 56 % 0.0 in
14:46 23.3 °F 14.3 °F 1021.9 in East 5.6 mph 5.6 mph 57 % 0.0 in
14:51 23.7 °F 14.1 °F 1021.9 in South 7.4 mph 7.4 mph 55 % 0.0 in
14:56 23.7 °F 14.7 °F 1020.9 in NW 9.3 mph 9.3 mph 57 % 0.0 in
14:57 23.6 °F 14.6 °F 1020.9 in NNW 7.4 mph 7.4 mph 57 % 0.0 in
15:02 24.0 °F 14.1 °F 1020.9 in SSE 13.0 mph 13.0 mph 54 % 0.0 in
15:07 23.6 °F 14.1 °F 1020.9 in SSE 9.0 mph 9.0 mph 55 % 0.0 in
15:12 23.9 °F 14.3 °F 1019.9 in ESE 13.0 mph 13.0 mph 55 % 0.0 in
15:17 23.7 °F 13.8 °F 1019.9 in ESE 9.7 mph 9.7 mph 54 % 0.0 in
15:22 23.6 °F 13.7 °F 1019.9 in South 9.7 mph 9.7 mph 54 % 0.0 in
15:27 23.6 °F 14.1 °F 1019.9 in ESE 9.3 mph 9.3 mph 55 % 0.0 in
15:32 23.4 °F 13.6 °F 1019.9 in ESE 14.8 mph 14.8 mph 54 % 0.0 in
15:37 23.7 °F 13.3 °F 1019.9 in East 7.4 mph 7.4 mph 52 % 0.0 in
15:42 23.6 °F 13.4 °F 1019.9 in ESE 5.6 mph 5.6 mph 53 % 0.0 in
15:47 23.5 °F 13.4 °F 1019.9 in ENE 11.1 mph 11.1 mph 53 % 0.0 in
15:52 23.2 °F 13.4 °F 1019.9 in ESE 14.8 mph 14.8 mph 54 % 0.0 in
15:57 23.1 °F 13.0 °F 1019.9 in SE 13.0 mph 13.0 mph 53 % 0.0 in
16:02 23.0 °F 12.9 °F 1019.9 in ESE 18.5 mph 18.5 mph 53 % 0.0 in
16:07 22.9 °F 12.8 °F 1019.9 in ESE 11.1 mph 11.1 mph 53 % 0.0 in
16:12 22.7 °F 12.9 °F 1019.9 in ESE 11.1 mph 11.1 mph 54 % 0.0 in
16:17 22.8 °F 13.0 °F 1019.9 in ENE 16.7 mph 16.7 mph 54 % 0.0 in
16:22 23.1 °F 13.3 °F 1019.9 in ESE 13.0 mph 13.0 mph 54 % 0.0 in
16:27 22.8 °F 13.0 °F 1019.9 in ENE 13.0 mph 13.0 mph 54 % 0.0 in
16:32 22.9 °F 13.1 °F 1019.9 in ESE 14.8 mph 14.8 mph 54 % 0.0 in
16:37 22.9 °F 13.1 °F 1019.9 in ESE 13.0 mph 13.0 mph 54 % 0.0 in
16:42 22.8 °F 13.0 °F 1019.9 in ENE 13.0 mph 13.0 mph 54 % 0.0 in
16:47 22.6 °F 12.8 °F 1019.9 in ENE 13.0 mph 13.0 mph 54 % 0.0 in
16:52 22.5 °F 12.7 °F 1019.9 in East 13.0 mph 13.0 mph 54 % 0.0 in
16:57 22.4 °F 12.6 °F 1019.9 in SE 13.0 mph 13.0 mph 54 % 0.0 in
17:02 22.5 °F 13.0 °F 1019.9 in ESE 16.7 mph 16.7 mph 55 % 0.0 in
17:07 22.9 °F 13.4 °F 1019.9 in SSE 5.6 mph 5.6 mph 55 % 0.0 in
17:12 23.8 °F 13.9 °F 1019.9 in SSW 7.4 mph 7.4 mph 54 % 0.0 in
17:17 23.9 °F 14.0 °F 1019.9 in WSW 11.1 mph 11.1 mph 54 % 0.0 in
17:27 24.0 °F 13.8 °F 1019.9 in SSW 11.4 mph 11.4 mph 53 % 0.0 in
17:32 23.8 °F 13.9 °F 1019.9 in SW 9.5 mph 9.5 mph 54 % 0.0 in
17:37 23.7 °F 13.6 °F 1019.9 in SW 9.3 mph 9.3 mph 53 % 0.0 in
17:42 23.9 °F 14.0 °F 1019.9 in WSW 11.1 mph 11.1 mph 54 % 0.0 in
17:47 23.6 °F 13.4 °F 1019.9 in WNW 11.1 mph 11.1 mph 53 % 0.0 in
17:52 23.4 °F 13.3 °F 1019.9 in SSE 9.3 mph 9.3 mph 53 % 0.0 in
17:57 23.3 °F 13.2 °F 1019.9 in SSW 5.6 mph 5.8 mph 53 % 0.0 in
18:02 23.1 °F 13.0 °F 1019.9 in WSW 13.0 mph 13.0 mph 53 % 0.0 in
18:07 23.0 °F 12.9 °F 1019.9 in SW 11.1 mph 11.1 mph 53 % 0.0 in
18:12 22.8 °F 13.0 °F 1019.9 in SW 9.7 mph 9.7 mph 54 % 0.0 in
18:17 22.6 °F 12.8 °F 1019.9 in SSE 10.0 mph 10.0 mph 54 % 0.0 in
18:22 22.3 °F 12.8 °F 1019.9 in SSW 11.1 mph 11.1 mph 55 % 0.0 in
18:27 22.2 °F 13.0 °F 1019.9 in SW 5.6 mph 5.6 mph 56 % 0.0 in
18:32 22.0 °F 12.8 °F 1019.9 in SSW 5.6 mph 5.6 mph 56 % 0.0 in
18:37 21.9 °F 13.0 °F 1019.9 in WSW 5.6 mph 6.4 mph 57 % 0.0 in
18:42 21.5 °F 12.6 °F 1019.9 in SW 9.3 mph 9.3 mph 57 % 0.0 in
18:47 21.2 °F 12.6 °F 1019.9 in SSW 7.4 mph 7.4 mph 58 % 0.0 in
18:52 21.0 °F 12.4 °F 1019.9 in SSW 9.3 mph 9.3 mph 58 % 0.0 in
18:57 20.7 °F 12.4 °F 1019.9 in SW 9.3 mph 9.3 mph 59 % 0.0 in
19:02 20.6 °F 12.3 °F 1019.9 in SW 9.3 mph 9.3 mph 59 % 0.0 in
19:07 20.4 °F 12.4 °F 1019.9 in South 9.3 mph 9.3 mph 60 % 0.0 in
19:12 20.3 °F 12.6 °F 1019.9 in SW 7.4 mph 7.4 mph 61 % 0.0 in
19:15 15.9 °F 12.4 °F 1019.9 in Calm     80 % 0.0 in
19:17 20.1 °F 12.3 °F 1019.9 in SW 9.3 mph 9.3 mph 61 % 0.0 in
19:22 20.0 °F 12.5 °F 1019.9 in South 10.3 mph 10.3 mph 62 % 0.0 in
19:25 15.9 °F 12.4 °F 1019.9 in Calm     80 % 0.0 in
19:27 19.9 °F 12.7 °F 1019.9 in WSW 5.6 mph 5.6 mph 63 % 0.0 in
19:32 19.8 °F 12.6 °F 1019.9 in WSW 7.4 mph 7.4 mph 63 % 0.0 in
19:35 15.9 °F 12.4 °F 1019.9 in Calm     80 % 0.0 in
19:37 19.6 °F 12.6 °F 1019.9 in SSW 7.4 mph 7.4 mph 64 % 0.0 in
19:42 19.5 °F 12.5 °F 1019.9 in WSW 5.8 mph 5.8 mph 64 % 0.0 in
19:45 15.8 °F 12.3 °F 1018.8 in Calm     80 % 0.0 in
19:47 19.4 °F 12.7 °F 1019.9 in WSW 7.9 mph 7.9 mph 65 % 0.0 in
19:52 19.3 °F 12.8 °F 1019.9 in SW 6.9 mph 6.9 mph 66 % 0.0 in
19:55 15.8 °F 12.6 °F 1018.8 in Calm     81 % 0.0 in
19:57 19.2 °F 12.7 °F 1019.9 in WSW 3.9 mph 3.9 mph 66 % 0.0 in
20:02 19.1 °F 12.6 °F 1019.9 in SW 4.2 mph 4.2 mph 66 % 0.0 in
20:05 15.7 °F 12.4 °F 1019.9 in NE 1.6 mph 4.8 mph 81 % 0.0 in
20:07 19.0 °F 12.7 °F 1019.9 in SW 5.6 mph 5.6 mph 67 % 0.0 in
20:12 18.8 °F 13.0 °F 1019.9 in SW 3.7 mph 3.7 mph 69 % 0.0 in
20:15 15.8 °F 12.6 °F 1019.9 in NE 3.2 mph 3.2 mph 81 % 0.0 in
20:17 18.7 °F 12.9 °F 1019.9 in SW 1.9 mph 1.9 mph 69 % 0.0 in
20:22 18.6 °F 12.8 °F 1019.9 in SW 3.9 mph 3.9 mph 69 % 0.0 in
20:25 15.8 °F 12.6 °F 1019.9 in NE 3.2 mph 4.8 mph 81 % 0.0 in
20:27 18.6 °F 13.0 °F 1019.9 in SW 3.7 mph 3.7 mph 70 % 0.0 in
20:32 18.5 °F 12.9 °F 1019.9 in SW 2.6 mph 2.6 mph 70 % 0.0 in
20:37 18.4 °F 13.1 °F 1019.9 in SW 1.9 mph   71 % 0.0 in
20:42 18.3 °F 12.9 °F 1019.9 in Calm     71 % 0.0 in
20:45 15.6 °F 12.3 °F 1018.8 in NW 1.6 mph 3.2 mph 81 % 0.0 in
20:47 18.2 °F 13.1 °F 1019.9 in Calm     72 % 0.0 in
20:52 18.1 °F 12.9 °F 1019.9 in Calm     72 % 0.0 in
20:55 15.6 °F 12.6 °F 1018.8 in Calm   3.2 mph 82 % 0.0 in
20:57 18.0 °F 12.9 °F 1019.9 in Calm     72 % 0.0 in
21:02 17.9 °F 13.0 °F 1019.9 in Calm     73 % 0.0 in
21:03 17.9 °F 13.0 °F 1019.9 in Calm     73 % 0.0 in
21:05 15.6 °F 12.6 °F 1018.8 in Calm   3.2 mph 82 % 0.0 in
21:08 17.9 °F 13.0 °F 1019.9 in Calm     73 % 0.0 in
21:13 17.9 °F 13.0 °F 1019.9 in NW 2.3 mph 2.3 mph 73 % 0.0 in
21:15 15.7 °F 12.6 °F 1018.8 in SW 1.6 mph 1.6 mph 82 % 0.0 in
21:18 17.9 °F 13.0 °F 1019.9 in NW 1.9 mph   73 % 0.0 in
21:23 17.9 °F 13.0 °F 1019.9 in NW 1.9 mph   73 % 0.0 in
21:25 15.7 °F 12.6 °F 1018.8 in Calm   3.2 mph 82 % 0.0 in
21:28 17.8 °F 12.9 °F 1019.9 in Calm     73 % 0.0 in
21:33 17.8 °F 12.9 °F 1019.9 in NW 1.9 mph   73 % 0.0 in
21:35 15.7 °F 12.6 °F 1018.8 in Calm   3.2 mph 82 % 0.0 in
21:38 17.8 °F 13.1 °F 1019.9 in Calm     74 % 0.0 in
21:43 17.7 °F 13.0 °F 1019.9 in NW 1.9 mph   74 % 0.0 in
21:45 15.8 °F 12.7 °F 1018.8 in ENE 1.6 mph 3.2 mph 82 % 0.0 in
21:48 17.8 °F 13.1 °F 1019.9 in NW 2.3 mph 2.3 mph 74 % 0.0 in
21:53 17.8 °F 13.1 °F 1019.9 in Calm     74 % 0.0 in
21:58 17.8 °F 13.3 °F 1019.9 in Calm     75 % 0.0 in
22:03 17.8 °F 13.3 °F 1019.9 in Calm     75 % 0.0 in
22:04 17.8 °F 13.3 °F 1019.9 in Calm     75 % 0.0 in
22:05 15.5 °F 12.3 °F 1017.8 in SW 1.6 mph 3.2 mph 81 % 0.0 in
22:09 17.7 °F 13.2 °F 1019.9 in NW 1.9 mph   75 % 0.0 in
22:14 17.7 °F 13.2 °F 1019.9 in Calm     75 % 0.0 in
22:15 15.5 °F 12.4 °F 1017.8 in Calm     82 % 0.0 in
22:19 17.6 °F 13.1 °F 1019.9 in Calm     75 % 0.0 in
22:24 17.5 °F 13.0 °F 1019.9 in NW 1.9 mph   75 % 0.0 in
22:25 15.6 °F 12.6 °F 1017.8 in Calm     82 % 0.0 in
22:29 17.2 °F 12.7 °F 1019.9 in NW 1.9 mph 1.9 mph 75 % 0.0 in
22:34 17.1 °F 12.8 °F 1019.9 in NW 1.9 mph   76 % 0.0 in
22:35 15.7 °F 12.6 °F 1017.8 in Calm   3.2 mph 82 % 0.0 in
22:39 17.1 °F 12.8 °F 1019.9 in Calm     76 % 0.0 in
22:44 17.1 °F 12.8 °F 1019.9 in Calm     76 % 0.0 in
22:45 15.6 °F 12.6 °F 1016.8 in Calm   1.6 mph 82 % 0.0 in
22:49 16.9 °F 12.8 °F 1019.9 in Calm     77 % 0.0 in
22:54 16.8 °F 12.7 °F 1019.9 in Calm     77 % 0.0 in
22:55 15.8 °F 12.9 °F 1016.8 in Calm     83 % 0.0 in
22:59 16.7 °F 12.7 °F 1019.9 in Calm     77 % 0.0 in
23:04 16.6 °F 12.6 °F 1019.9 in West 2.3 mph   77 % 0.0 in
23:05 16.0 °F 12.9 °F 1016.8 in WNW 1.6 mph 1.6 mph 82 % 0.0 in
23:09 16.5 °F 12.4 °F 1019.9 in Calm     77 % 0.0 in
23:14 16.5 °F 12.7 °F 1019.9 in Calm     78 % 0.0 in
23:15 15.9 °F 12.8 °F 1017.8 in NE 1.6 mph 4.8 mph 82 % 0.0 in
23:19 16.4 °F 12.6 °F 1019.9 in Calm     78 % 0.0 in
23:24 16.4 °F 12.7 °F 1019.9 in Calm     79 % 0.0 in
23:25 16.0 °F 12.9 °F 1017.8 in Calm   1.6 mph 82 % 0.0 in
23:29 16.3 °F 12.7 °F 1019.9 in NE 1.9 mph   79 % 0.0 in
23:34 16.2 °F 12.6 °F 1019.9 in Calm     79 % 0.0 in
23:35 16.0 °F 12.9 °F 1017.8 in North 1.6 mph 3.2 mph 82 % 0.0 in
23:39 16.2 °F 12.6 °F 1019.9 in Calm     79 % 0.0 in
23:44 16.1 °F 12.4 °F 1019.9 in Calm     79 % 0.0 in
23:45 16.0 °F 12.9 °F 1016.8 in NNE 4.8 mph 6.4 mph 82 % 0.0 in
23:49 16.1 °F 12.4 °F 1019.9 in Calm     79 % 0.0 in
23:54 16.1 °F 12.4 °F 1019.9 in Calm     79 % 0.0 in
23:55 16.1 °F 13.0 °F 1016.8 in NE 1.6 mph 4.8 mph 82 % 0.0 in
23:59 16.0 °F 12.3 °F 1019.9 in Calm     79 % 0.0 in
Meteo Sesrovires
Elogis d' Weather Underground - 1.5 mb

Guio original per  Jim McMurry - jmcmurry@mwt.net Adaptat per a la plantilla per  Wim van der Kuil - Leuven-Template.eu

Trobareu la nostra informacio del temps tambe a:

Weather Underground

AWEKAS